sensor_id;sensor_type;location;lat;lon;timestamp;pressure;altitude;pressure_sealevel;temperature;humidity
84795;BME280;75026;49.184;16.564;2024-03-02T00:01:50;97939.41;;;20.23;65.02
84795;BME280;75026;49.184;16.564;2024-03-02T00:06:52;97940.03;;;20.27;65.17
84795;BME280;75026;49.184;16.564;2024-03-02T00:11:55;97940.16;;;20.24;65.15
84795;BME280;75026;49.184;16.564;2024-03-02T00:16:56;97930.25;;;20.23;65.16
84795;BME280;75026;49.184;16.564;2024-03-02T00:22:00;97935.69;;;20.17;65.14
84795;BME280;75026;49.184;16.564;2024-03-02T00:32:13;97923.88;;;20.13;65.49
84795;BME280;75026;49.184;16.564;2024-03-02T00:37:16;97934.38;;;20.09;65.38
84795;BME280;75026;49.184;16.564;2024-03-02T00:42:17;97936.09;;;20.06;65.41
84795;BME280;75026;49.184;16.564;2024-03-02T00:47:18;97937.16;;;20.00;65.51
84795;BME280;75026;49.184;16.564;2024-03-02T00:52:19;97931.56;;;20.00;65.42
84795;BME280;75026;49.184;16.564;2024-03-02T00:57:20;97930.00;;;19.99;65.63
84795;BME280;75026;49.184;16.564;2024-03-02T01:02:21;97932.47;;;19.97;65.49
84795;BME280;75026;49.184;16.564;2024-03-02T01:07:21;97919.91;;;19.92;65.71
84795;BME280;75026;49.184;16.564;2024-03-02T01:12:22;97917.56;;;19.91;65.69
84795;BME280;75026;49.184;16.564;2024-03-02T01:17:23;97913.19;;;19.90;65.61
84795;BME280;75026;49.184;16.564;2024-03-02T01:22:24;97922.81;;;19.89;65.76
84795;BME280;75026;49.184;16.564;2024-03-02T01:27:26;97911.31;;;19.86;65.82
84795;BME280;75026;49.184;16.564;2024-03-02T01:32:27;97919.41;;;19.84;65.53
84795;BME280;75026;49.184;16.564;2024-03-02T01:37:28;97916.28;;;19.82;65.75
84795;BME280;75026;49.184;16.564;2024-03-02T01:42:29;97916.28;;;19.82;65.75
84795;BME280;75026;49.184;16.564;2024-03-02T01:47:31;97908.38;;;19.81;65.52
84795;BME280;75026;49.184;16.564;2024-03-02T01:52:33;97910.81;;;19.79;65.63
84795;BME280;75026;49.184;16.564;2024-03-02T01:57:34;97907.72;;;19.77;65.76
84795;BME280;75026;49.184;16.564;2024-03-02T02:02:35;97911.75;;;19.76;65.73
84795;BME280;75026;49.184;16.564;2024-03-02T02:07:36;97915.00;;;19.74;65.83
84795;BME280;75026;49.184;16.564;2024-03-02T02:12:38;97906.31;;;19.72;65.79
84795;BME280;75026;49.184;16.564;2024-03-02T02:27:58;97903.19;;;19.70;65.92
84795;BME280;75026;49.184;16.564;2024-03-02T02:32:59;97897.31;;;19.68;65.84
84795;BME280;75026;49.184;16.564;2024-03-02T02:38:00;97891.72;;;19.68;65.85
84795;BME280;75026;49.184;16.564;2024-03-02T02:43:02;97883.78;;;19.67;65.99
84795;BME280;75026;49.184;16.564;2024-03-02T02:48:03;97890.63;;;19.66;65.92
84795;BME280;75026;49.184;16.564;2024-03-02T02:53:05;97890.91;;;19.68;65.98
84795;BME280;75026;49.184;16.564;2024-03-02T02:58:06;97880.69;;;19.65;65.98
84795;BME280;75026;49.184;16.564;2024-03-02T03:03:07;97877.09;;;19.64;66.20
84795;BME280;75026;49.184;16.564;2024-03-02T03:08:08;97892.63;;;19.65;66.19
84795;BME280;75026;49.184;16.564;2024-03-02T03:13:09;97883.94;;;19.63;65.84
84795;BME280;75026;49.184;16.564;2024-03-02T03:18:10;97876.44;;;19.60;66.08
84795;BME280;75026;49.184;16.564;2024-03-02T03:23:13;97884.16;;;19.56;66.16
84795;BME280;75026;49.184;16.564;2024-03-02T03:28:17;97902.03;;;19.58;66.00
84795;BME280;75026;49.184;16.564;2024-03-02T03:33:18;97897.34;;;19.55;66.33
84795;BME280;75026;49.184;16.564;2024-03-02T03:38:19;97897.34;;;19.55;66.19
84795;BME280;75026;49.184;16.564;2024-03-02T03:43:20;97896.09;;;19.56;66.07
84795;BME280;75026;49.184;16.564;2024-03-02T03:48:20;97897.34;;;19.55;66.08
84795;BME280;75026;49.184;16.564;2024-03-02T03:53:21;97896.56;;;19.55;66.18
84795;BME280;75026;49.184;16.564;2024-03-02T03:58:23;97892.25;;;19.54;66.08
84795;BME280;75026;49.184;16.564;2024-03-02T04:03:23;97899.03;;;19.53;66.08
84795;BME280;75026;49.184;16.564;2024-03-02T04:08:25;97907.88;;;19.51;66.15
84795;BME280;75026;49.184;16.564;2024-03-02T04:13:25;97903.06;;;19.52;66.19
84795;BME280;75026;49.184;16.564;2024-03-02T04:18:26;97903.06;;;19.52;66.04
84795;BME280;75026;49.184;16.564;2024-03-02T04:23:27;97903.66;;;19.47;66.63
84795;BME280;75026;49.184;16.564;2024-03-02T04:28:28;97908.00;;;19.48;66.42
84795;BME280;75026;49.184;16.564;2024-03-02T04:33:29;97908.91;;;19.45;66.32
84795;BME280;75026;49.184;16.564;2024-03-02T04:38:29;97925.53;;;19.48;66.29
84795;BME280;75026;49.184;16.564;2024-03-02T04:43:31;97915.75;;;19.44;66.47
84795;BME280;75026;49.184;16.564;2024-03-02T04:48:32;97920.09;;;19.45;66.48
84795;BME280;75026;49.184;16.564;2024-03-02T04:53:33;97924.88;;;19.44;66.54
84795;BME280;75026;49.184;16.564;2024-03-02T04:58:34;97921.66;;;19.46;66.51
84795;BME280;75026;49.184;16.564;2024-03-02T05:03:35;97924.59;;;19.42;66.59
84795;BME280;75026;49.184;16.564;2024-03-02T05:08:36;97935.28;;;19.44;66.45
84795;BME280;75026;49.184;16.564;2024-03-02T05:13:37;97940.53;;;19.42;66.42
84795;BME280;75026;49.184;16.564;2024-03-02T05:18:38;97949.84;;;19.38;66.48
84795;BME280;75026;49.184;16.564;2024-03-02T05:23:39;97951.38;;;19.40;66.51
84795;BME280;75026;49.184;16.564;2024-03-02T05:28:40;97958.97;;;19.39;66.60
84795;BME280;75026;49.184;16.564;2024-03-02T05:33:41;97959.41;;;19.37;66.50
84795;BME280;75026;49.184;16.564;2024-03-02T05:38:42;97952.16;;;19.40;66.61
84795;BME280;75026;49.184;16.564;2024-03-02T05:43:43;97951.16;;;19.34;66.54
84795;BME280;75026;49.184;16.564;2024-03-02T05:48:44;97945.16;;;19.35;66.54
84795;BME280;75026;49.184;16.564;2024-03-02T05:53:45;97950.75;;;19.35;66.51
84795;BME280;75026;49.184;16.564;2024-03-02T05:58:45;97946.84;;;19.33;66.57
84795;BME280;75026;49.184;16.564;2024-03-02T06:03:52;97950.09;;;19.31;66.53
84795;BME280;75026;49.184;16.564;2024-03-02T06:08:53;97949.75;;;19.29;66.73
84795;BME280;75026;49.184;16.564;2024-03-02T06:13:53;97955.03;;;19.27;66.62
84795;BME280;75026;49.184;16.564;2024-03-02T06:18:54;97966.50;;;19.29;66.58
84795;BME280;75026;49.184;16.564;2024-03-02T06:23:55;97966.50;;;19.29;66.67
84795;BME280;75026;49.184;16.564;2024-03-02T06:28:57;97967.72;;;19.28;66.73
84795;BME280;75026;49.184;16.564;2024-03-02T06:33:58;97971.75;;;19.27;66.71
84795;BME280;75026;49.184;16.564;2024-03-02T06:38:58;97974.22;;;19.25;66.68
84795;BME280;75026;49.184;16.564;2024-03-02T06:43:59;97987.84;;;19.23;66.75
84795;BME280;75026;49.184;16.564;2024-03-02T06:49:00;97980.69;;;19.22;66.74
84795;BME280;75026;49.184;16.564;2024-03-02T06:54:03;97985.84;;;19.24;66.64
84795;BME280;75026;49.184;16.564;2024-03-02T06:59:03;97986.28;;;19.22;66.63
84795;BME280;75026;49.184;16.564;2024-03-02T07:04:04;97989.41;;;19.24;66.48
84795;BME280;75026;49.184;16.564;2024-03-02T07:09:07;97994.22;;;19.24;66.56
84795;BME280;75026;49.184;16.564;2024-03-02T07:14:11;98007.56;;;19.29;66.50
84795;BME280;75026;49.184;16.564;2024-03-02T07:19:12;98002.84;;;19.38;66.12
84795;BME280;75026;49.184;16.564;2024-03-02T07:24:13;97991.16;;;19.53;65.99
84795;BME280;75026;49.184;16.564;2024-03-02T07:29:15;97996.25;;;19.67;65.76
84795;BME280;75026;49.184;16.564;2024-03-02T07:34:16;98009.69;;;19.81;65.45
84795;BME280;75026;49.184;16.564;2024-03-02T07:39:17;98014.72;;;19.96;65.45
84795;BME280;75026;49.184;16.564;2024-03-02T07:44:17;98012.31;;;20.07;65.33
84795;BME280;75026;49.184;16.564;2024-03-02T07:49:19;98018.56;;;20.20;65.19
84795;BME280;75026;49.184;16.564;2024-03-02T07:54:20;98011.00;;;20.30;65.07
84795;BME280;75026;49.184;16.564;2024-03-02T07:59:21;98023.94;;;20.37;65.16
84795;BME280;75026;49.184;16.564;2024-03-02T08:04:22;98029.53;;;20.46;64.91
84795;BME280;75026;49.184;16.564;2024-03-02T08:09:23;98030.19;;;20.50;64.86
84795;BME280;75026;49.184;16.564;2024-03-02T08:14:24;98038.25;;;20.48;63.87
84795;BME280;75026;49.184;16.564;2024-03-02T08:19:25;98026.31;;;20.47;62.87
84795;BME280;75026;49.184;16.564;2024-03-02T08:24:26;98026.44;;;20.44;62.42
84795;BME280;75026;49.184;16.564;2024-03-02T08:29:27;98024.22;;;20.39;62.02
84795;BME280;75026;49.184;16.564;2024-03-02T08:34:28;98020.81;;;20.34;62.13
84795;BME280;75026;49.184;16.564;2024-03-02T08:39:29;98027.00;;;20.29;61.57
84795;BME280;75026;49.184;16.564;2024-03-02T08:44:30;98022.97;;;20.30;61.13
84795;BME280;75026;49.184;16.564;2024-03-02T08:49:31;98023.25;;;20.23;60.66
84795;BME280;75026;49.184;16.564;2024-03-02T08:54:32;98023.38;;;20.20;61.19
84795;BME280;75026;49.184;16.564;2024-03-02T08:59:35;98032.59;;;20.29;61.96
84795;BME280;75026;49.184;16.564;2024-03-02T09:04:36;98025.16;;;20.36;62.45
84795;BME280;75026;49.184;16.564;2024-03-02T09:09:38;98023.94;;;20.46;62.39
84795;BME280;75026;49.184;16.564;2024-03-02T09:14:42;98028.00;;;20.45;62.82
84795;BME280;75026;49.184;16.564;2024-03-02T09:19:43;98029.44;;;20.49;63.03
84795;BME280;75026;49.184;16.564;2024-03-02T09:24:44;98024.16;;;20.51;63.18
84795;BME280;75026;49.184;16.564;2024-03-02T09:29:45;98025.56;;;20.56;63.06
84795;BME280;75026;49.184;16.564;2024-03-02T09:34:46;98008.50;;;20.63;62.79
84795;BME280;75026;49.184;16.564;2024-03-02T09:39:48;98012.22;;;20.60;63.12
84795;BME280;75026;49.184;16.564;2024-03-02T09:44:49;98021.88;;;20.59;63.15
84795;BME280;75026;49.184;16.564;2024-03-02T09:49:50;98013.78;;;20.61;63.31
84795;BME280;75026;49.184;16.564;2024-03-02T09:54:51;98024.97;;;20.61;63.33
84795;BME280;75026;49.184;16.564;2024-03-02T09:59:52;98014.25;;;20.60;63.36
84795;BME280;75026;49.184;16.564;2024-03-02T10:11:32;98008.81;;;20.56;63.46
84795;BME280;75026;49.184;16.564;2024-03-02T10:16:38;98007.41;;;20.61;63.51
84795;BME280;75026;49.184;16.564;2024-03-02T10:27:50;98018.72;;;20.57;63.65
84795;BME280;75026;49.184;16.564;2024-03-02T10:32:53;98015.50;;;20.58;63.75
84795;BME280;75026;49.184;16.564;2024-03-02T10:37:54;98011.13;;;20.57;63.71
84795;BME280;75026;49.184;16.564;2024-03-02T10:42:55;98009.13;;;20.58;63.78
84795;BME280;75026;49.184;16.564;2024-03-02T10:47:57;98002.59;;;20.61;63.58
84795;BME280;75026;49.184;16.564;2024-03-02T10:52:58;98017.81;;;20.60;63.71
84795;BME280;75026;49.184;16.564;2024-03-02T10:58:00;98013.00;;;20.61;63.67
84795;BME280;75026;49.184;16.564;2024-03-02T11:03:06;98023.09;;;20.58;63.69
84795;BME280;75026;49.184;16.564;2024-03-02T11:08:13;98012.22;;;20.60;63.38
84795;BME280;75026;49.184;16.564;2024-03-02T11:13:15;98012.22;;;20.51;63.09
84795;BME280;75026;49.184;16.564;2024-03-02T11:18:16;98015.19;;;20.25;62.27
84795;BME280;75026;49.184;16.564;2024-03-02T11:23:17;98006.31;;;20.18;61.44
84795;BME280;75026;49.184;16.564;2024-03-02T11:28:35;97997.50;;;20.28;63.01
84795;BME280;75026;49.184;16.564;2024-03-02T11:33:44;98002.00;;;20.35;62.98
84795;BME280;75026;49.184;16.564;2024-03-02T11:38:46;98002.84;;;20.45;63.12
84795;BME280;75026;49.184;16.564;2024-03-02T11:43:47;98003.16;;;20.47;63.22
84795;BME280;75026;49.184;16.564;2024-03-02T11:48:49;98008.63;;;20.50;63.20
84795;BME280;75026;49.184;16.564;2024-03-02T11:53:51;98003.47;;;20.49;63.17
84795;BME280;75026;49.184;16.564;2024-03-02T11:58:53;98001.03;;;20.51;63.27
84795;BME280;75026;49.184;16.564;2024-03-02T12:03:54;98012.22;;;20.51;63.24
84795;BME280;75026;49.184;16.564;2024-03-02T12:09:02;98018.09;;;20.53;63.34
84795;BME280;75026;49.184;16.564;2024-03-02T12:14:04;98009.13;;;20.58;63.28
84795;BME280;75026;49.184;16.564;2024-03-02T12:19:05;98008.66;;;20.60;63.42
84795;BME280;75026;49.184;16.564;2024-03-02T12:24:06;98015.63;;;20.55;63.42
84795;BME280;75026;49.184;16.564;2024-03-02T12:29:07;98006.91;;;20.53;63.51
84795;BME280;75026;49.184;16.564;2024-03-02T12:34:08;98002.91;;;20.54;63.42
84795;BME280;75026;49.184;16.564;2024-03-02T12:39:09;98002.56;;;20.52;63.48
84795;BME280;75026;49.184;16.564;2024-03-02T12:44:10;97994.53;;;20.54;63.57
84795;BME280;75026;49.184;16.564;2024-03-02T12:49:13;98004.59;;;20.51;63.64
84795;BME280;75026;49.184;16.564;2024-03-02T12:54:14;98003.81;;;20.51;63.68
84795;BME280;75026;49.184;16.564;2024-03-02T12:59:19;98003.81;;;20.51;63.54
84795;BME280;75026;49.184;16.564;2024-03-02T13:04:25;98001.28;;;20.44;63.67
84795;BME280;75026;49.184;16.564;2024-03-02T13:09:26;98001.44;;;20.40;63.54
84795;BME280;75026;49.184;16.564;2024-03-02T13:14:27;98000.78;;;20.36;63.73
84795;BME280;75026;49.184;16.564;2024-03-02T13:19:28;97998.44;;;20.34;64.01
84795;BME280;75026;49.184;16.564;2024-03-02T13:24:31;97999.22;;;20.35;63.98
84795;BME280;75026;49.184;16.564;2024-03-02T13:29:33;97999.69;;;20.33;64.00
84795;BME280;75026;49.184;16.564;2024-03-02T13:34:34;97991.50;;;20.39;64.36
84795;BME280;75026;49.184;16.564;2024-03-02T13:39:35;97987.59;;;20.37;64.38
84795;BME280;75026;49.184;16.564;2024-03-02T13:44:43;97999.72;;;20.43;64.31
84795;BME280;75026;49.184;16.564;2024-03-02T13:49:48;97999.41;;;20.41;64.55
84795;BME280;75026;49.184;16.564;2024-03-02T13:54:49;97999.41;;;20.41;64.64
84795;BME280;75026;49.184;16.564;2024-03-02T13:59:52;98000.94;;;20.42;64.63
84795;BME280;75026;49.184;16.564;2024-03-02T14:04:56;97997.38;;;20.41;64.54
84795;BME280;75026;49.184;16.564;2024-03-02T14:09:57;98005.16;;;20.46;64.68
84795;BME280;75026;49.184;16.564;2024-03-02T14:14:58;98002.53;;;20.43;64.37
84795;BME280;75026;49.184;16.564;2024-03-02T14:19:59;98006.53;;;20.42;64.56
84795;BME280;75026;49.184;16.564;2024-03-02T14:25:00;98002.34;;;20.46;64.54
84795;BME280;75026;49.184;16.564;2024-03-02T14:30:02;98007.19;;;20.46;64.68
84795;BME280;75026;49.184;16.564;2024-03-02T14:35:03;97998.50;;;20.44;64.79
84795;BME280;75026;49.184;16.564;2024-03-02T14:40:05;97994.78;;;20.47;64.43
84795;BME280;75026;49.184;16.564;2024-03-02T14:45:07;98001.28;;;20.44;64.64
84795;BME280;75026;49.184;16.564;2024-03-02T14:50:08;98000.81;;;20.45;64.58
84795;BME280;75026;49.184;16.564;2024-03-02T14:55:10;97991.97;;;20.47;64.54
84795;BME280;75026;49.184;16.564;2024-03-02T15:00:11;97984.81;;;20.46;64.50
84795;BME280;75026;49.184;16.564;2024-03-02T15:05:12;97992.91;;;20.44;64.69
84795;BME280;75026;49.184;16.564;2024-03-02T15:15:31;97993.41;;;20.20;62.95
84795;BME280;75026;49.184;16.564;2024-03-02T15:20:32;98002.28;;;19.88;63.34
84795;BME280;75026;49.184;16.564;2024-03-02T15:25:33;98004.28;;;19.87;63.98
84795;BME280;75026;49.184;16.564;2024-03-02T15:30:35;98001.28;;;20.13;64.41
84795;BME280;75026;49.184;16.564;2024-03-02T15:35:35;97998.41;;;20.25;63.97
84795;BME280;75026;49.184;16.564;2024-03-02T15:40:36;97990.66;;;20.29;64.07
84795;BME280;75026;49.184;16.564;2024-03-02T15:45:37;97994.09;;;20.33;63.79
84795;BME280;75026;49.184;16.564;2024-03-02T15:50:38;97989.75;;;20.32;64.18
84795;BME280;75026;49.184;16.564;2024-03-02T15:55:39;97978.88;;;20.34;64.23
84795;BME280;75026;49.184;16.564;2024-03-02T16:00:40;97979.50;;;20.39;63.93
84795;BME280;75026;49.184;16.564;2024-03-02T16:05:41;97983.53;;;20.38;64.15
84795;BME280;75026;49.184;16.564;2024-03-02T16:10:42;97976.41;;;20.37;64.19
84795;BME280;75026;49.184;16.564;2024-03-02T16:15:42;97968.94;;;20.33;64.25
84795;BME280;75026;49.184;16.564;2024-03-02T16:20:43;97988.50;;;20.33;64.27
84795;BME280;75026;49.184;16.564;2024-03-02T16:25:44;97977.38;;;20.43;64.08
84795;BME280;75026;49.184;16.564;2024-03-02T16:30:45;97981.47;;;20.51;64.12
84795;BME280;75026;49.184;16.564;2024-03-02T16:35:46;97980.53;;;20.63;63.96
84795;BME280;75026;49.184;16.564;2024-03-02T16:40:49;97982.13;;;20.73;63.76
84795;BME280;75026;49.184;16.564;2024-03-02T16:45:50;97978.56;;;20.82;64.01
84795;BME280;75026;49.184;16.564;2024-03-02T16:50:51;97984.63;;;20.90;63.75
84795;BME280;75026;49.184;16.564;2024-03-02T16:55:51;98001.88;;;20.97;63.61
84795;BME280;75026;49.184;16.564;2024-03-02T17:00:52;98008.59;;;21.00;63.72
84795;BME280;75026;49.184;16.564;2024-03-02T17:05:53;98000.50;;;21.02;63.61
84795;BME280;75026;49.184;16.564;2024-03-02T17:10:55;97999.88;;;21.07;63.63
84795;BME280;75026;49.184;16.564;2024-03-02T17:15:56;98005.34;;;21.11;63.42
84795;BME280;75026;49.184;16.564;2024-03-02T17:20:57;98012.63;;;21.08;63.59
84795;BME280;75026;49.184;16.564;2024-03-02T17:25:57;97997.38;;;21.09;63.52
84795;BME280;75026;49.184;16.564;2024-03-02T17:30:58;98004.09;;;21.12;63.65
84795;BME280;75026;49.184;16.564;2024-03-02T17:35:59;98002.06;;;21.12;63.59
84795;BME280;75026;49.184;16.564;2024-03-02T17:41:00;98006.09;;;21.11;63.71
84795;BME280;75026;49.184;16.564;2024-03-02T17:46:01;98000.50;;;21.11;63.67
84795;BME280;75026;49.184;16.564;2024-03-02T17:51:06;97997.38;;;21.09;63.70
84795;BME280;75026;49.184;16.564;2024-03-02T17:56:11;98008.13;;;21.11;63.76
84795;BME280;75026;49.184;16.564;2024-03-02T18:01:12;98006.41;;;21.13;63.63
84795;BME280;75026;49.184;16.564;2024-03-02T18:06:15;98000.03;;;21.13;63.70
84795;BME280;75026;49.184;16.564;2024-03-02T18:11:17;97997.72;;;21.11;63.71
84795;BME280;75026;49.184;16.564;2024-03-02T18:16:19;98000.66;;;21.08;63.87
84795;BME280;75026;49.184;16.564;2024-03-02T18:21:19;98001.75;;;21.10;63.77
84795;BME280;75026;49.184;16.564;2024-03-02T18:26:20;97994.59;;;21.09;63.94
84795;BME280;75026;49.184;16.564;2024-03-02T18:31:21;97989.31;;;21.11;63.99
84795;BME280;75026;49.184;16.564;2024-03-02T18:36:22;97998.97;;;21.10;63.75
84795;BME280;75026;49.184;16.564;2024-03-02T18:41:23;97996.31;;;21.06;63.29
84795;BME280;75026;49.184;16.564;2024-03-02T18:46:25;97991.31;;;21.01;63.55
84795;BME280;75026;49.184;16.564;2024-03-02T18:51:26;97997.69;;;21.02;63.90
84795;BME280;75026;49.184;16.564;2024-03-02T18:56:27;97995.22;;;21.04;64.17
84795;BME280;75026;49.184;16.564;2024-03-02T19:01:28;97999.72;;;21.01;64.28
84795;BME280;75026;49.184;16.564;2024-03-02T19:11:29;98000.81;;;21.04;64.43
84795;BME280;75026;49.184;16.564;2024-03-02T19:16:30;97993.66;;;21.03;64.19
84795;BME280;75026;49.184;16.564;2024-03-02T19:21:31;98002.34;;;21.05;64.32
84795;BME280;75026;49.184;16.564;2024-03-02T19:26:32;98000.81;;;21.04;64.43
84795;BME280;75026;49.184;16.564;2024-03-02T19:31:33;97998.00;;;21.04;64.39
84795;BME280;75026;49.184;16.564;2024-03-02T19:36:34;97995.22;;;21.04;64.42
84795;BME280;75026;49.184;16.564;2024-03-02T19:46:36;97997.69;;;21.02;64.34
84795;BME280;75026;49.184;16.564;2024-03-02T19:51:37;97987.75;;;21.01;64.40
84795;BME280;75026;49.184;16.564;2024-03-02T19:56:38;97991.66;;;21.03;64.48
84795;BME280;75026;49.184;16.564;2024-03-02T20:01:39;97989.63;;;21.04;64.31
84795;BME280;75026;49.184;16.564;2024-03-02T20:06:43;97989.78;;;21.00;64.51
84795;BME280;75026;49.184;16.564;2024-03-02T20:11:44;97991.47;;;20.98;64.62
84795;BME280;75026;49.184;16.564;2024-03-02T20:16:45;97996.16;;;21.01;64.51
84795;BME280;75026;49.184;16.564;2024-03-02T20:21:46;97994.44;;;21.03;64.42
84795;BME280;75026;49.184;16.564;2024-03-02T20:26:47;97986.50;;;21.02;64.47
84795;BME280;75026;49.184;16.564;2024-03-02T20:36:49;97991.66;;;21.03;64.40
84795;BME280;75026;49.184;16.564;2024-03-02T20:41:52;97998.31;;;21.06;64.50
84795;BME280;75026;49.184;16.564;2024-03-02T20:46:56;97994.44;;;21.03;64.38
84795;BME280;75026;49.184;16.564;2024-03-02T20:51:57;97995.22;;;21.04;64.40
84795;BME280;75026;49.184;16.564;2024-03-02T20:56:58;97999.56;;;21.05;64.51
84795;BME280;75026;49.184;16.564;2024-03-02T21:01:59;98008.28;;;21.07;64.44
84795;BME280;75026;49.184;16.564;2024-03-02T21:07:01;97998.00;;;21.04;64.52
84795;BME280;75026;49.184;16.564;2024-03-02T21:12:03;97999.88;;;21.07;64.21
84795;BME280;75026;49.184;16.564;2024-03-02T21:17:05;97995.22;;;21.04;64.47
84795;BME280;75026;49.184;16.564;2024-03-02T21:22:06;97977.81;;;21.00;64.55
84795;BME280;75026;49.184;16.564;2024-03-02T21:27:09;97992.09;;;21.02;64.39
84795;BME280;75026;49.184;16.564;2024-03-02T21:32:11;97987.44;;;20.99;64.59
84795;BME280;75026;49.184;16.564;2024-03-02T21:37:12;97991.47;;;20.98;64.54
84795;BME280;75026;49.184;16.564;2024-03-02T21:42:13;97979.50;;;20.97;64.41
84795;BME280;75026;49.184;16.564;2024-03-02T21:47:13;97981.06;;;20.98;64.46
84795;BME280;75026;49.184;16.564;2024-03-02T21:52:17;97985.25;;;20.94;64.55
84795;BME280;75026;49.184;16.564;2024-03-02T21:57:18;97978.41;;;20.95;64.50
84795;BME280;75026;49.184;16.564;2024-03-02T22:02:23;97975.78;;;20.91;64.56
84795;BME280;75026;49.184;16.564;2024-03-02T22:07:24;97972.50;;;20.93;64.56
84795;BME280;75026;49.184;16.564;2024-03-02T22:12:25;97961.47;;;20.89;64.41
84795;BME280;75026;49.184;16.564;2024-03-02T22:17:25;97956.34;;;20.88;64.73
84795;BME280;75026;49.184;16.564;2024-03-02T22:22:28;97946.38;;;20.87;64.59
84795;BME280;75026;49.184;16.564;2024-03-02T22:27:29;97949.66;;;20.85;64.01
84795;BME280;75026;49.184;16.564;2024-03-02T22:32:30;97950.44;;;20.86;64.33
84795;BME280;75026;49.184;16.564;2024-03-02T22:37:31;97944.84;;;20.86;64.38
84795;BME280;75026;49.184;16.564;2024-03-02T22:42:32;97947.00;;;20.81;64.52
84795;BME280;75026;49.184;16.564;2024-03-02T22:47:33;97948.88;;;20.85;64.46
84795;BME280;75026;49.184;16.564;2024-03-02T22:52:34;97942.66;;;20.80;64.65
84795;BME280;75026;49.184;16.564;2024-03-02T22:57:36;97935.22;;;20.77;64.65
84795;BME280;75026;49.184;16.564;2024-03-02T23:02:37;97934.88;;;20.75;64.74
84795;BME280;75026;49.184;16.564;2024-03-02T23:07:38;97929.91;;;20.79;64.66
84795;BME280;75026;49.184;16.564;2024-03-02T23:12:38;97942.06;;;20.76;64.69
84795;BME280;75026;49.184;16.564;2024-03-02T23:17:39;97928.69;;;20.80;64.38
84795;BME280;75026;49.184;16.564;2024-03-02T23:22:41;97932.41;;;20.77;64.67
84795;BME280;75026;49.184;16.564;2024-03-02T23:27:43;97921.81;;;20.72;64.75
84795;BME280;75026;49.184;16.564;2024-03-02T23:32:44;97912.03;;;20.68;64.80
84795;BME280;75026;49.184;16.564;2024-03-02T23:37:45;97908.63;;;20.73;64.74
84795;BME280;75026;49.184;16.564;2024-03-02T23:42:46;97904.59;;;20.74;64.64
84795;BME280;75026;49.184;16.564;2024-03-02T23:47:47;97902.25;;;20.72;64.48
84795;BME280;75026;49.184;16.564;2024-03-02T23:52:48;97888.28;;;20.63;64.63
84795;BME280;75026;49.184;16.564;2024-03-02T23:57:49;97900.56;;;20.66;64.60
